Time;durP1;ratioP1;P1;durP2;ratioP2;P2;SDS_P1;SDS_P2;PMS_P1;PMS_P2;Temp;Humidity;BMP_temperature;BMP_pressure;BME280_temperature;BME280_humidity;BME280_pressure;Samples;Min_cycle;Max_cycle;Signal;HPM_P1;HPM_P2
2023/10/25 00:00:44;;;;;;;19.77;11.20;;;8.60;99.90;;;;;;7378944;19;20019;-70
2023/10/25 00:03:12;;;;;;;20.88;11.38;;;8.50;99.90;;;;;;7377657;19;20024;-64
2023/10/25 00:05:38;;;;;;;15.82;10.40;;;8.50;99.90;;;;;;7374065;19;20039;-70
2023/10/25 00:08:05;;;;;;;14.73;11.18;;;8.40;99.90;;;;;;7378381;19;20034;-70
2023/10/25 00:10:31;;;;;;;21.48;10.38;;;8.50;99.90;;;;;;7383686;19;20838;-70
2023/10/25 00:12:57;;;;;;;15.57;10.75;;;8.50;99.90;;;;;;7377628;19;20144;-70
2023/10/25 00:15:24;;;;;;;21.55;10.70;;;8.40;99.90;;;;;;7379658;19;20470;-70
2023/10/25 00:17:50;;;;;;;19.67;11.02;;;8.50;99.90;;;;;;7375445;19;20018;-63
2023/10/25 00:20:16;;;;;;;19.42;12.13;;;8.40;99.90;;;;;;7379156;19;20015;-63
2023/10/25 00:22:43;;;;;;;14.82;10.60;;;8.40;99.90;;;;;;7379493;19;20620;-64
2023/10/25 00:25:09;;;;;;;16.90;10.57;;;8.40;99.90;;;;;;7379555;19;20090;-64
2023/10/25 00:27:35;;;;;;;16.00;9.88;;;8.30;99.90;;;;;;7377540;19;20019;-63
2023/10/25 00:30:02;;;;;;;17.65;11.00;;;8.30;99.90;;;;;;7377513;19;20400;-63
2023/10/25 00:32:28;;;;;;;15.38;11.27;;;8.30;99.90;;;;;;7378955;19;20370;-63
2023/10/25 00:34:54;;;;;;;20.92;11.27;;;8.30;99.90;;;;;;7376009;19;20490;-63
2023/10/25 00:37:20;;;;;;;19.33;11.20;;;8.20;99.90;;;;;;7375113;19;20022;-63
2023/10/25 00:39:47;;;;;;;18.33;10.27;;;8.20;99.90;;;;;;7377342;19;20016;-64
2023/10/25 00:42:14;;;;;;;21.65;11.63;;;8.10;99.90;;;;;;7379478;19;20018;-64
2023/10/25 00:44:40;;;;;;;16.90;10.27;;;8.10;99.90;;;;;;7376218;19;20022;-63
2023/10/25 00:47:07;;;;;;;21.25;11.10;;;8.10;99.90;;;;;;7375894;19;20022;-70
2023/10/25 00:49:34;;;;;;;18.27;10.20;;;8.10;99.90;;;;;;7376716;19;20033;-70
2023/10/25 00:52:01;;;;;;;17.08;10.77;;;8.10;99.90;;;;;;7376156;19;20670;-70
2023/10/25 00:54:28;;;;;;;15.70;11.05;;;8.10;99.90;;;;;;7378073;19;20035;-70
2023/10/25 00:56:56;;;;;;;19.75;10.68;;;8.10;99.90;;;;;;7380317;19;20497;-70
2023/10/25 00:59:22;;;;;;;15.07;10.73;;;8.00;99.90;;;;;;7376786;19;20018;-70
2023/10/25 01:01:50;;;;;;;18.90;10.48;;;8.00;99.90;;;;;;7376119;19;20022;-63
2023/10/25 01:04:17;;;;;;;15.27;10.93;;;8.00;99.90;;;;;;7377427;19;20010;-70
2023/10/25 01:06:43;;;;;;;15.00;9.63;;;8.00;99.90;;;;;;7372732;19;20046;-71
2023/10/25 01:09:09;;;;;;;21.40;10.98;;;8.00;99.90;;;;;;7373810;19;20020;-71
2023/10/25 01:11:36;;;;;;;19.35;10.68;;;8.00;99.90;;;;;;7377118;19;20018;-64
2023/10/25 01:14:04;;;;;;;24.05;11.30;;;8.00;99.90;;;;;;7375973;19;20664;-64
2023/10/25 01:16:30;;;;;;;18.98;10.55;;;7.90;99.90;;;;;;7377521;19;20026;-64
2023/10/25 01:18:56;;;;;;;13.75;10.63;;;7.90;99.90;;;;;;7377242;19;20607;-63
2023/10/25 01:21:22;;;;;;;17.85;10.98;;;7.90;99.90;;;;;;7376369;19;20022;-70
2023/10/25 01:23:53;;;;;;;17.23;10.68;;;7.90;99.90;;;;;;7377982;19;20018;-70
2023/10/25 01:26:19;;;;;;;18.25;11.07;;;7.90;99.90;;;;;;7375587;19;20022;-71
2023/10/25 01:28:45;;;;;;;20.58;12.07;;;7.90;99.90;;;;;;7375292;19;20363;-70
2023/10/25 01:31:12;;;;;;;15.38;10.63;;;7.90;99.90;;;;;;7376310;19;20015;-64
2023/10/25 01:33:38;;;;;;;20.13;11.48;;;7.90;99.90;;;;;;7369910;19;20022;-64
2023/10/25 01:36:05;;;;;;;20.20;11.13;;;7.90;99.90;;;;;;7377110;19;20494;-63
2023/10/25 01:38:31;;;;;;;19.77;12.00;;;7.90;99.90;;;;;;7376687;19;20489;-64
2023/10/25 01:40:58;;;;;;;23.25;12.70;;;7.90;99.90;;;;;;7373520;19;20014;-63
2023/10/25 01:43:24;;;;;;;18.58;12.13;;;7.80;99.90;;;;;;7373392;19;20116;-63
2023/10/25 01:45:51;;;;;;;19.73;12.05;;;7.80;99.90;;;;;;7372625;19;20064;-63
2023/10/25 01:48:17;;;;;;;25.40;12.95;;;7.80;99.90;;;;;;7375583;19;20022;-71
2023/10/25 01:50:43;;;;;;;19.63;13.23;;;7.80;99.90;;;;;;7373631;19;20015;-71
2023/10/25 01:53:09;;;;;;;20.50;12.75;;;7.80;99.90;;;;;;7377045;19;20308;-64
2023/10/25 01:55:40;;;;;;;24.67;13.38;;;7.80;99.90;;;;;;7373868;19;20053;-70
2023/10/25 01:58:06;;;;;;;19.20;12.98;;;7.80;99.90;;;;;;7371237;19;20011;-70
2023/10/25 02:00:32;;;;;;;24.45;13.35;;;7.70;99.90;;;;;;7375592;19;20014;-63
2023/10/25 02:02:58;;;;;;;23.08;12.65;;;7.70;99.90;;;;;;7374818;19;20035;-64
2023/10/25 02:05:25;;;;;;;19.77;14.30;;;7.70;99.90;;;;;;7375712;19;20022;-64
2023/10/25 02:07:51;;;;;;;21.92;14.10;;;7.70;99.90;;;;;;7376494;19;20477;-64
2023/10/25 02:10:18;;;;;;;23.63;14.45;;;7.70;99.90;;;;;;7376855;19;20363;-64
2023/10/25 02:12:45;;;;;;;23.63;15.18;;;7.70;99.90;;;;;;7375183;19;20042;-64
2023/10/25 02:15:11;;;;;;;27.58;15.20;;;7.70;99.90;;;;;;7374301;19;20938;-70
2023/10/25 02:17:38;;;;;;;24.27;15.23;;;7.70;99.90;;;;;;7375208;19;20022;-64
2023/10/25 02:20:05;;;;;;;23.98;15.45;;;7.80;99.90;;;;;;7374344;19;20522;-63
2023/10/25 02:22:31;;;;;;;24.00;15.68;;;7.80;99.90;;;;;;7374004;19;20074;-70
2023/10/25 02:24:58;;;;;;;32.85;16.20;;;7.80;99.90;;;;;;7371016;19;20744;-71
2023/10/25 02:27:25;;;;;;;31.15;15.65;;;7.70;99.90;;;;;;7373810;19;20082;-70
2023/10/25 02:29:51;;;;;;;23.48;16.40;;;7.80;99.90;;;;;;7372119;19;20593;-71
2023/10/25 02:32:17;;;;;;;26.38;16.60;;;7.70;99.90;;;;;;7373270;19;20035;-71
2023/10/25 02:34:43;;;;;;;24.27;16.48;;;7.70;99.90;;;;;;7375651;19;20019;-63
2023/10/25 02:37:10;;;;;;;23.75;15.10;;;7.70;99.90;;;;;;7374262;19;20018;-63
2023/10/25 02:39:37;;;;;;;29.77;16.38;;;7.70;99.90;;;;;;7373629;19;20082;-69
2023/10/25 02:42:05;;;;;;;24.48;17.05;;;7.70;99.90;;;;;;7372266;19;20421;-70
2023/10/25 02:44:31;;;;;;;30.83;16.45;;;7.70;99.90;;;;;;7373256;19;20023;-70
2023/10/25 02:46:57;;;;;;;23.90;15.02;;;7.70;99.90;;;;;;7370727;19;20485;-70
2023/10/25 02:49:24;;;;;;;24.60;15.73;;;7.70;99.90;;;;;;7370993;19;20098;-70
2023/10/25 02:51:51;;;;;;;26.50;15.38;;;7.60;99.90;;;;;;7370320;19;20030;-70
2023/10/25 02:54:19;;;;;;;22.73;15.52;;;7.60;99.90;;;;;;7374059;19;20086;-63
2023/10/25 02:56:45;;;;;;;24.08;16.10;;;7.60;99.90;;;;;;7370477;19;20976;-71
2023/10/25 02:59:11;;;;;;;27.08;16.77;;;7.60;99.90;;;;;;7371334;19;20520;-70
2023/10/25 03:01:38;;;;;;;25.63;13.80;;;7.50;99.90;;;;;;7373916;19;20158;-63
2023/10/25 03:04:05;;;;;;;25.83;15.18;;;7.60;99.90;;;;;;7373386;19;20010;-63
2023/10/25 03:06:31;;;;;;;26.80;14.68;;;7.40;99.90;;;;;;7372690;19;20093;-63
2023/10/25 03:08:57;;;;;;;22.77;14.70;;;7.40;99.90;;;;;;7370276;19;20464;-63
2023/10/25 03:11:23;;;;;;;27.63;15.35;;;7.50;99.90;;;;;;7379631;19;20050;-70
2023/10/25 03:13:50;;;;;;;25.27;13.60;;;7.40;99.90;;;;;;7377270;19;20056;-63
2023/10/25 03:16:16;;;;;;;21.08;14.63;;;7.40;99.90;;;;;;7380053;19;20022;-70
2023/10/25 03:18:43;;;;;;;22.52;14.88;;;7.40;99.90;;;;;;7377279;19;20023;-71
2023/10/25 03:21:09;;;;;;;24.73;15.00;;;7.40;99.90;;;;;;7381742;19;20723;-70
2023/10/25 03:23:35;;;;;;;22.15;14.55;;;7.40;99.90;;;;;;7378361;19;20082;-70
2023/10/25 03:26:04;;;;;;;22.65;14.93;;;7.40;99.90;;;;;;7374150;19;20026;-71
2023/10/25 03:28:31;;;;;;;26.02;16.15;;;7.40;99.90;;;;;;7380290;19;20371;-63
2023/10/25 03:30:58;;;;;;;28.13;16.38;;;7.40;99.90;;;;;;7377270;19;20022;-63
2023/10/25 03:33:24;;;;;;;26.02;15.50;;;7.40;99.90;;;;;;7379081;19;20023;-63
2023/10/25 03:35:52;;;;;;;28.40;16.80;;;7.50;99.90;;;;;;7378089;19;20018;-63
2023/10/25 03:38:19;;;;;;;23.98;15.85;;;7.40;99.90;;;;;;7381410;19;20025;-63
2023/10/25 03:40:47;;;;;;;27.88;16.38;;;7.40;99.90;;;;;;7377266;19;20790;-63
2023/10/25 03:43:14;;;;;;;28.80;16.23;;;7.40;99.90;;;;;;7378881;19;20018;-70
2023/10/25 03:45:40;;;;;;;23.02;15.60;;;7.30;99.90;;;;;;7372052;19;20019;-70
2023/10/25 03:48:06;;;;;;;23.50;15.55;;;7.40;99.90;;;;;;7377856;19;20073;-70
2023/10/25 03:50:33;;;;;;;23.38;15.68;;;7.40;99.90;;;;;;7371230;19;20018;-70
2023/10/25 03:52:59;;;;;;;25.85;15.75;;;7.30;99.90;;;;;;7381710;19;20033;-70
2023/10/25 03:55:25;;;;;;;28.38;16.63;;;7.30;99.90;;;;;;7378547;19;20023;-70
2023/10/25 03:57:51;;;;;;;28.45;16.35;;;7.30;99.90;;;;;;7375432;19;20022;-69
2023/10/25 04:00:17;;;;;;;23.52;16.48;;;7.20;99.90;;;;;;7376154;19;20099;-70
2023/10/25 04:02:44;;;;;;;23.42;14.90;;;7.30;99.90;;;;;;7376853;19;20032;-70
2023/10/25 04:05:10;;;;;;;24.52;15.75;;;7.20;99.90;;;;;;7375171;19;20833;-70
2023/10/25 04:07:36;;;;;;;22.77;15.60;;;7.20;99.90;;;;;;7377944;19;20022;-70
2023/10/25 04:10:02;;;;;;;27.80;16.65;;;7.20;99.90;;;;;;7374555;19;20018;-63
2023/10/25 04:12:29;;;;;;;28.73;15.57;;;7.20;99.90;;;;;;7377794;19;20025;-63
2023/10/25 04:14:55;;;;;;;27.98;15.85;;;7.20;99.90;;;;;;7374737;19;20019;-63
2023/10/25 04:17:22;;;;;;;22.98;15.63;;;7.10;99.90;;;;;;7375342;19;20018;-71
2023/10/25 04:19:48;;;;;;;26.48;15.73;;;7.10;99.90;;;;;;7373626;19;20781;-70
2023/10/25 04:22:16;;;;;;;24.10;16.15;;;7.10;99.90;;;;;;7375595;19;20027;-63
2023/10/25 04:24:42;;;;;;;24.63;15.02;;;7.10;99.90;;;;;;7377297;19;20491;-63
2023/10/25 04:27:08;;;;;;;25.15;15.25;;;7.10;99.90;;;;;;7377559;19;20018;-63
2023/10/25 04:29:35;;;;;;;27.70;16.40;;;7.10;99.90;;;;;;7378408;19;20028;-63
2023/10/25 04:32:01;;;;;;;25.48;16.35;;;7.10;99.90;;;;;;7374755;19;20142;-63
2023/10/25 04:34:27;;;;;;;27.85;15.70;;;7.10;99.90;;;;;;7380253;19;20014;-63
2023/10/25 04:36:55;;;;;;;25.85;16.60;;;7.10;99.90;;;;;;7376899;19;20018;-63
2023/10/25 04:39:21;;;;;;;22.70;15.85;;;7.00;99.90;;;;;;7375580;19;20056;-63
2023/10/25 04:41:47;;;;;;;27.33;17.20;;;7.00;99.90;;;;;;7374400;19;20406;-63
2023/10/25 04:44:14;;;;;;;29.23;16.90;;;7.00;99.90;;;;;;7375069;19;20088;-62
2023/10/25 04:46:40;;;;;;;28.40;16.40;;;7.00;99.90;;;;;;7377585;19;20026;-63
2023/10/25 04:49:07;;;;;;;27.38;16.33;;;7.00;99.90;;;;;;7371408;19;20014;-62
2023/10/25 04:51:33;;;;;;;26.73;15.70;;;7.00;99.90;;;;;;7372923;19;20014;-62
2023/10/25 04:53:59;;;;;;;26.95;15.23;;;7.00;99.90;;;;;;7373880;19;20014;-63
2023/10/25 04:56:25;;;;;;;25.85;15.80;;;7.00;99.90;;;;;;7376611;19;20018;-62
2023/10/25 04:58:51;;;;;;;29.83;17.45;;;7.00;99.90;;;;;;7377099;19;20023;-63
2023/10/25 05:01:18;;;;;;;24.23;15.73;;;7.00;99.90;;;;;;7371535;19;20050;-63
2023/10/25 05:03:44;;;;;;;26.98;16.60;;;7.00;99.90;;;;;;7371800;19;20380;-63
2023/10/25 05:06:11;;;;;;;24.52;15.38;;;7.00;99.90;;;;;;7373001;19;20026;-63
2023/10/25 05:08:37;;;;;;;31.65;17.20;;;6.90;99.90;;;;;;7376178;19;20014;-63
2023/10/25 05:11:05;;;;;;;24.17;16.40;;;6.90;99.90;;;;;;7375815;19;20093;-63
2023/10/25 05:13:32;;;;;;;25.42;16.90;;;6.80;99.90;;;;;;7373061;19;20779;-63
2023/10/25 05:15:59;;;;;;;27.58;17.35;;;6.80;99.90;;;;;;7377097;19;20094;-62
2023/10/25 05:18:26;;;;;;;29.27;16.13;;;6.90;99.90;;;;;;7375387;19;20038;-63
2023/10/25 05:21:03;;;;;;;25.33;15.02;;;6.90;99.90;;;;;;7375234;19;20023;-63
2023/10/25 05:23:31;;;;;;;26.42;16.13;;;6.80;99.90;;;;;;7377614;19;20837;-63
2023/10/25 05:25:59;;;;;;;27.75;16.15;;;6.80;99.90;;;;;;7373520;19;20522;-62
2023/10/25 05:28:26;;;;;;;27.13;15.55;;;6.80;99.90;;;;;;7370411;19;20033;-63
2023/10/25 05:30:55;;;;;;;29.10;16.30;;;6.80;99.90;;;;;;7369525;19;20018;-62
2023/10/25 05:33:24;;;;;;;25.60;15.85;;;6.80;99.90;;;;;;7370092;19;20015;-63
2023/10/25 05:35:50;;;;;;;30.67;17.50;;;6.80;99.90;;;;;;7374274;19;20026;-63
2023/10/25 05:38:17;;;;;;;35.63;17.23;;;6.80;99.90;;;;;;7374491;19;20057;-63
2023/10/25 05:40:47;;;;;;;27.38;17.52;;;6.80;99.90;;;;;;7371860;19;20525;-63
2023/10/25 05:43:15;;;;;;;33.63;18.13;;;6.90;99.90;;;;;;7374115;19;20511;-63
2023/10/25 05:45:42;;;;;;;40.42;25.85;;;6.90;99.90;;;;;;7375510;19;20018;-61
2023/10/25 05:48:13;;;;;;;27.95;18.10;;;6.90;99.90;;;;;;7375980;19;20026;-64
2023/10/25 05:50:43;;;;;;;29.90;19.07;;;6.90;99.90;;;;;;7374438;19;20022;-64
2023/10/25 05:53:11;;;;;;;30.85;19.05;;;6.90;99.90;;;;;;7376352;19;20014;-63
2023/10/25 05:55:38;;;;;;;28.75;19.10;;;7.00;99.90;;;;;;7372860;19;20043;-63
2023/10/25 05:58:04;;;;;;;31.20;19.23;;;6.90;99.90;;;;;;7374013;19;20025;-61
2023/10/25 06:00:30;;;;;;;30.83;20.00;;;6.90;99.90;;;;;;7374494;19;20056;-64
2023/10/25 06:03:00;;;;;;;31.48;21.73;;;6.90;99.90;;;;;;7372858;19;20018;-63
2023/10/25 06:05:31;;;;;;;32.38;20.13;;;6.90;99.90;;;;;;7373474;19;20065;-63
2023/10/25 06:07:58;;;;;;;32.80;20.30;;;6.90;99.90;;;;;;7373456;19;20107;-63
2023/10/25 06:10:24;;;;;;;33.38;20.55;;;6.90;99.90;;;;;;7375089;19;20014;-63
2023/10/25 06:12:51;;;;;;;41.47;20.15;;;6.90;99.90;;;;;;7371759;19;20014;-63
2023/10/25 06:15:17;;;;;;;35.35;21.30;;;6.90;99.90;;;;;;7377312;19;20399;-63
2023/10/25 06:17:43;;;;;;;29.63;19.90;;;6.90;99.90;;;;;;7374198;19;20091;-63
2023/10/25 06:20:11;;;;;;;39.97;21.45;;;6.90;99.90;;;;;;7372817;19;20030;-63
2023/10/25 06:22:37;;;;;;;31.63;20.90;;;6.90;99.90;;;;;;7375127;19;20030;-64
2023/10/25 06:25:05;;;;;;;36.20;21.98;;;6.90;99.90;;;;;;7375918;19;20014;-64
2023/10/25 06:27:31;;;;;;;32.15;20.90;;;6.90;99.90;;;;;;7374367;19;20022;-63
2023/10/25 06:29:57;;;;;;;27.85;19.60;;;7.00;99.90;;;;;;7373074;19;20400;-63
2023/10/25 06:32:23;;;;;;;32.00;21.63;;;6.90;99.90;;;;;;7374680;19;20470;-63
2023/10/25 06:34:50;;;;;;;36.80;21.98;;;6.90;99.90;;;;;;7375474;19;20018;-63
2023/10/25 06:37:16;;;;;;;36.83;21.77;;;6.90;99.90;;;;;;7374158;19;20027;-63
2023/10/25 06:39:43;;;;;;;35.40;22.55;;;6.90;99.90;;;;;;7376444;19;20038;-63
2023/10/25 06:42:11;;;;;;;34.42;21.35;;;6.90;99.90;;;;;;7377219;19;20027;-69
2023/10/25 06:44:37;;;;;;;37.60;22.73;;;6.90;99.90;;;;;;7384044;19;20046;-69
2023/10/25 06:47:06;;;;;;;32.85;21.88;;;6.90;99.90;;;;;;7382345;19;20108;-69
2023/10/25 06:49:32;;;;;;;35.28;22.10;;;6.90;99.90;;;;;;7383215;19;20025;-68
2023/10/25 06:51:59;;;;;;;37.00;21.05;;;6.90;99.90;;;;;;7384661;19;20042;-69
2023/10/25 06:54:25;;;;;;;33.55;20.55;;;6.90;99.90;;;;;;7387148;19;20043;-68
2023/10/25 06:56:51;;;;;;;30.38;20.48;;;6.90;99.90;;;;;;7385191;19;20023;-68
2023/10/25 06:59:18;;;;;;;30.52;19.75;;;7.00;99.90;;;;;;7384348;19;20540;-69
2023/10/25 07:01:48;;;;;;;27.02;19.27;;;7.00;99.90;;;;;;7382402;19;20422;-69
2023/10/25 07:04:15;;;;;;;28.90;20.67;;;7.10;99.90;;;;;;7384453;19;20021;-67
2023/10/25 07:06:45;;;;;;;30.92;20.10;;;7.10;99.90;;;;;;7380797;19;20062;-70
2023/10/25 07:09:14;;;;;;;31.38;19.27;;;7.20;99.90;;;;;;7384109;19;20018;-70
2023/10/25 07:11:40;;;;;;;30.08;19.33;;;7.20;99.90;;;;;;7383527;19;20026;-71
2023/10/25 07:14:06;;;;;;;28.25;18.10;;;7.30;99.90;;;;;;7383373;19;20018;-71
2023/10/25 07:16:32;;;;;;;32.05;19.08;;;7.40;99.90;;;;;;7384463;19;20416;-71
2023/10/25 07:18:59;;;;;;;26.60;18.38;;;7.40;99.90;;;;;;7383491;19;20474;-70
2023/10/25 07:21:25;;;;;;;30.48;19.83;;;7.50;99.90;;;;;;7383004;19;20022;-71
2023/10/25 07:23:53;;;;;;;28.13;18.70;;;7.50;99.90;;;;;;7384840;19;20034;-71
2023/10/25 07:26:20;;;;;;;27.27;17.65;;;7.60;99.90;;;;;;7380835;19;20010;-70
2023/10/25 07:28:46;;;;;;;25.38;17.15;;;7.60;99.90;;;;;;7384809;19;20388;-70
2023/10/25 07:31:12;;;;;;;22.85;16.73;;;7.70;99.90;;;;;;7382082;19;20369;-71
2023/10/25 07:33:40;;;;;;;24.58;17.55;;;7.70;99.90;;;;;;7383205;19;20364;-71
2023/10/25 07:36:07;;;;;;;25.35;16.40;;;7.80;99.90;;;;;;7382429;19;20010;-71
2023/10/25 07:38:33;;;;;;;24.27;17.02;;;8.00;99.90;;;;;;7382903;19;20030;-71
2023/10/25 07:40:59;;;;;;;22.88;16.75;;;8.00;99.90;;;;;;7381045;19;20043;-64
2023/10/25 07:43:25;;;;;;;25.98;18.05;;;8.00;99.90;;;;;;7380756;19;20014;-70
2023/10/25 07:45:51;;;;;;;22.45;16.88;;;8.10;99.90;;;;;;7379349;19;20031;-71
2023/10/25 07:48:20;;;;;;;29.13;16.73;;;8.20;99.90;;;;;;7383488;19;20044;-71
2023/10/25 07:50:46;;;;;;;25.17;16.15;;;8.30;99.90;;;;;;7381351;19;20371;-71
2023/10/25 07:53:12;;;;;;;24.92;15.70;;;8.30;99.90;;;;;;7381132;19;20026;-64
2023/10/25 07:55:44;;;;;;;25.27;16.83;;;8.40;99.90;;;;;;7378011;19;20031;-64
2023/10/25 07:58:11;;;;;;;25.13;16.05;;;8.40;99.90;;;;;;7381290;19;20060;-64
2023/10/25 08:00:38;;;;;;;28.80;17.63;;;8.50;99.90;;;;;;7378824;19;20019;-64
2023/10/25 08:03:04;;;;;;;24.60;16.95;;;8.50;99.90;;;;;;7378909;19;20962;-65
2023/10/25 08:05:30;;;;;;;25.77;17.58;;;8.60;99.90;;;;;;7379952;19;20029;-64
2023/10/25 08:07:57;;;;;;;27.15;18.40;;;8.70;99.90;;;;;;7380180;19;20647;-64
2023/10/25 08:10:24;;;;;;;19.77;17.10;;;8.70;99.90;;;;;;7380845;19;20019;-63
2023/10/25 08:12:50;;;;;;;23.95;17.67;;;8.70;99.90;;;;;;7377009;19;20035;-64
2023/10/25 08:15:17;;;;;;;23.20;16.38;;;8.80;99.90;;;;;;7382913;19;20812;-64
2023/10/25 08:17:43;;;;;;;22.60;16.75;;;8.80;99.90;;;;;;7378051;19;20041;-63
2023/10/25 08:20:10;;;;;;;21.88;15.88;;;8.90;99.90;;;;;;7379530;19;20014;-64
2023/10/25 08:22:36;;;;;;;22.38;15.23;;;8.90;99.90;;;;;;7380750;19;20018;-64
2023/10/25 08:25:08;;;;;;;21.33;14.85;;;8.90;99.90;;;;;;7380253;19;20470;-64
2023/10/25 08:27:35;;;;;;;;;;;8.90;99.90;;;;;;7381351;19;20026;-64
2023/10/25 08:30:02;;;;;;;20.63;14.43;;;9.00;99.90;;;;;;7380324;19;20494;-64
2023/10/25 08:32:28;;;;;;;19.95;14.60;;;9.00;99.90;;;;;;7376487;19;20022;-72
2023/10/25 08:34:55;;;;;;;20.42;14.93;;;9.00;99.90;;;;;;7382112;19;20043;-72
2023/10/25 08:37:21;;;;;;;20.80;14.38;;;9.10;99.90;;;;;;7381965;19;20478;-72
2023/10/25 08:39:47;;;;;;;21.08;14.25;;;9.10;99.90;;;;;;7381470;19;20035;-72
2023/10/25 08:42:13;;;;;;;19.08;15.35;;;9.10;99.90;;;;;;7379603;19;20056;-73
2023/10/25 08:44:43;;;;;;;23.85;14.50;;;9.20;99.90;;;;;;7380610;19;20680;-64
2023/10/25 08:47:10;;;;;;;20.67;14.93;;;9.30;99.90;;;;;;7378445;19;20892;-72
2023/10/25 08:49:38;;;;;;;21.23;14.65;;;9.30;99.90;;;;;;7376278;19;20086;-64
2023/10/25 08:52:05;;;;;;;20.60;14.30;;;9.40;99.90;;;;;;7374874;19;20018;-64
2023/10/25 08:54:31;;;;;;;21.10;14.45;;;9.40;99.90;;;;;;7376747;19;20023;-72
2023/10/25 08:56:58;;;;;;;18.55;13.15;;;9.50;99.90;;;;;;7380839;19;20010;-72
2023/10/25 08:59:24;;;;;;;21.27;13.75;;;9.60;99.90;;;;;;7381199;19;20014;-66
2023/10/25 09:01:51;;;;;;;14.77;12.15;;;9.70;99.90;;;;;;7383018;19;20018;-72
2023/10/25 09:04:17;;;;;;;21.10;14.18;;;9.90;99.90;;;;;;7382499;19;20022;-64
2023/10/25 09:06:43;;;;;;;17.67;12.95;;;10.20;99.90;;;;;;7375977;19;20100;-64
2023/10/25 09:09:09;;;;;;;22.58;12.95;;;10.50;99.90;;;;;;7374968;19;20019;-64
2023/10/25 09:11:46;;;;;;;19.55;12.40;;;10.80;99.90;;;;;;7378436;19;20648;-65
2023/10/25 09:14:13;;;;;;;13.07;9.63;;;11.30;99.90;;;;;;7390102;19;20012;-70
2023/10/25 09:16:50;;;;;;;12.63;9.68;;;11.90;99.90;;;;;;7392973;19;20014;-70
2023/10/25 09:19:19;;;;;;;13.48;8.63;;;12.40;99.90;;;;;;7393519;19;20383;-70
2023/10/25 09:21:48;;;;;;;12.23;8.60;;;12.90;99.90;;;;;;7393163;19;20050;-70
2023/10/25 09:24:15;;;;;;;11.15;9.27;;;13.20;99.90;;;;;;7392942;19;20074;-71
2023/10/25 09:26:41;;;;;;;15.18;9.07;;;13.30;99.90;;;;;;7391530;19;20011;-71
2023/10/25 09:29:12;;;;;;;10.20;7.22;;;13.40;99.90;;;;;;7393498;19;20027;-71
2023/10/25 09:31:40;;;;;;;10.93;6.72;;;13.50;99.90;;;;;;7392434;19;20014;-71
2023/10/25 09:34:11;;;;;;;11.77;8.02;;;13.70;99.90;;;;;;7385684;19;20398;-71
2023/10/25 09:36:39;;;;;;;9.48;6.47;;;14.10;99.90;;;;;;7393303;19;20015;-71
2023/10/25 09:39:06;;;;;;;10.60;7.40;;;13.80;99.90;;;;;;7394374;19;20343;-71
2023/10/25 09:41:38;;;;;;;10.98;6.75;;;13.70;99.90;;;;;;7391444;19;20026;-71
2023/10/25 09:44:15;;;;;;;9.43;6.88;;;13.70;99.90;;;;;;7392317;19;20013;-71
2023/10/25 09:46:45;;;;;;;12.90;7.38;;;13.80;99.90;;;;;;7386553;19;20018;-70
2023/10/25 09:49:15;;;;;;;10.07;7.05;;;13.80;99.90;;;;;;7387831;19;20340;-71
2023/10/25 09:51:48;;;;;;;11.23;6.85;;;14.00;99.90;;;;;;7389942;19;20049;-65
2023/10/25 09:54:23;;;;;;;12.15;7.63;;;14.10;99.90;;;;;;7376721;19;20019;-65
2023/10/25 09:56:50;;;;;;;11.18;6.55;;;14.50;99.90;;;;;;7376493;19;20026;-65
2023/10/25 09:59:20;;;;;;;12.70;5.78;;;14.90;99.90;;;;;;7381230;19;20046;-70
2023/10/25 10:01:47;;;;;;;12.57;6.43;;;14.80;99.90;;;;;;7385643;19;20018;-71
2023/10/25 10:04:22;;;;;;;10.82;6.03;;;14.90;99.90;;;;;;7384983;19;20014;-70
2023/10/25 10:07:09;;;;;;;10.15;6.50;;;15.00;99.90;;;;;;7384408;19;20028;-71
2023/10/25 10:09:54;;;;;;;9.70;6.28;;;15.10;99.90;;;;;;7383536;19;20415;-70
2023/10/25 10:12:20;;;;;;;9.23;5.88;;;15.30;99.90;;;;;;7382721;19;20007;-70
2023/10/25 10:14:47;;;;;;;9.07;6.15;;;15.30;99.90;;;;;;7384169;19;20010;-70
2023/10/25 10:17:15;;;;;;;9.98;5.95;;;15.20;99.90;;;;;;7376889;19;20022;-70
2023/10/25 10:19:46;;;;;;;12.55;5.72;;;14.90;99.90;;;;;;7375150;19;20062;-70
2023/10/25 10:22:14;;;;;;;8.82;5.65;;;14.70;99.90;;;;;;7378808;19;20022;-70
2023/10/25 10:24:56;;;;;;;9.45;4.90;;;14.30;99.90;;;;;;7381394;19;20371;-70
2023/10/25 10:27:54;;;;;;;9.95;6.15;;;14.00;99.90;;;;;;7380059;19;20022;-70
2023/10/25 10:30:29;;;;;;;11.23;6.68;;;13.80;99.90;;;;;;7379430;19;20018;-70
2023/10/25 10:32:56;;;;;;;9.77;5.95;;;13.60;99.90;;;;;;7381919;19;20767;-70
2023/10/25 10:35:23;;;;;;;8.82;6.18;;;13.40;99.90;;;;;;7380470;19;20038;-70
2023/10/25 10:37:57;;;;;;;12.93;6.32;;;13.20;99.90;;;;;;7383913;19;20805;-70
2023/10/25 10:40:23;;;;;;;11.15;6.32;;;13.20;99.90;;;;;;7381922;19;20105;-71
2023/10/25 10:42:51;;;;;;;7.82;6.32;;;13.00;99.90;;;;;;7383057;19;20022;-70
2023/10/25 10:45:19;;;;;;;9.93;7.25;;;12.90;99.90;;;;;;7380183;19;20450;-70
2023/10/25 10:47:55;;;;;;;9.02;5.88;;;12.80;99.90;;;;;;7382644;19;20044;-71
2023/10/25 10:50:23;;;;;;;8.07;5.75;;;12.80;99.90;;;;;;7376007;19;20082;-71
2023/10/25 10:52:52;;;;;;;9.48;5.13;;;12.60;99.90;;;;;;7375219;19;20824;-65
2023/10/25 10:55:23;;;;;;;14.43;8.30;;;12.60;99.90;;;;;;7373321;19;20007;-64
2023/10/25 10:57:52;;;;;;;8.90;7.10;;;12.50;99.90;;;;;;7371575;19;20022;-65
2023/10/25 11:00:18;;;;;;;8.60;6.07;;;12.40;99.90;;;;;;7370648;19;20021;-65
2023/10/25 11:02:46;;;;;;;10.95;6.50;;;12.40;99.90;;;;;;7373775;19;20021;-57
2023/10/25 11:05:14;;;;;;;29.08;21.10;;;12.40;99.90;;;;;;7369886;19;20037;-69
2023/10/25 11:07:41;;;;;;;13.05;7.47;;;12.50;99.90;;;;;;7373535;19;20027;-69
2023/10/25 11:10:08;;;;;;;14.38;6.82;;;12.40;99.90;;;;;;7373539;19;20017;-69
2023/10/25 11:12:35;;;;;;;7.63;6.60;;;12.40;99.90;;;;;;7370692;19;20022;-69
2023/10/25 11:15:04;;;;;;;8.43;6.32;;;12.30;99.90;;;;;;7369562;19;20026;-69
2023/10/25 11:17:32;;;;;;;12.02;6.63;;;12.30;99.90;;;;;;7372432;19;20018;-66
2023/10/25 11:19:59;;;;;;;9.60;6.07;;;12.20;99.90;;;;;;7372057;19;20014;-69
2023/10/25 11:22:25;;;;;;;10.60;7.03;;;12.20;99.90;;;;;;7368474;19;20021;-69
2023/10/25 11:24:52;;;;;;;7.60;6.00;;;12.10;99.90;;;;;;7369386;19;20063;-70
2023/10/25 11:27:19;;;;;;;9.43;6.60;;;12.10;99.90;;;;;;7371233;19;20045;-68
2023/10/25 11:29:48;;;;;;;12.30;7.00;;;12.10;99.90;;;;;;7374952;19;20311;-68
2023/10/25 11:32:15;;;;;;;11.77;6.78;;;12.00;99.90;;;;;;7373257;19;20428;-69
2023/10/25 11:34:43;;;;;;;53.05;43.33;;;12.00;99.90;;;;;;7371830;19;20014;-61
2023/10/25 11:37:10;;;;;;;27.80;19.05;;;12.00;99.90;;;;;;7364673;19;20018;-72
2023/10/25 11:39:56;;;;;;;11.40;7.47;;;12.00;99.90;;;;;;7380190;19;20019;-73
2023/10/25 11:42:25;;;;;;;10.32;5.93;;;12.00;99.90;;;;;;7377125;19;20383;-72
2023/10/25 11:44:52;;;;;;;11.27;6.63;;;11.90;99.90;;;;;;7376389;19;20091;-72
2023/10/25 11:47:20;;;;;;;10.73;6.35;;;11.90;99.90;;;;;;7381617;19;20663;-72
2023/10/25 11:49:57;;;;;;;9.88;6.22;;;11.90;99.90;;;;;;7375745;19;20592;-73
2023/10/25 11:52:28;;;;;;;13.30;6.38;;;11.80;99.90;;;;;;7380804;19;20014;-72
2023/10/25 11:54:56;;;;;;;11.88;6.40;;;11.80;99.90;;;;;;7376823;19;20022;-72
2023/10/25 11:57:30;;;;;;;11.63;5.53;;;11.70;99.90;;;;;;7381982;19;20015;-72
2023/10/25 11:59:57;;;;;;;10.38;5.80;;;11.70;99.90;;;;;;7377862;19;20105;-72
2023/10/25 12:02:26;;;;;;;7.82;6.22;;;11.70;99.90;;;;;;7379231;19;20043;-71
2023/10/25 12:04:54;;;;;;;9.68;5.60;;;11.60;99.90;;;;;;7375041;19;20022;-73
2023/10/25 12:07:21;;;;;;;14.75;6.50;;;11.60;99.90;;;;;;7377028;19;20134;-73
2023/10/25 12:09:52;;;;;;;14.02;6.95;;;11.50;99.90;;;;;;7378425;19;20475;-72
2023/10/25 12:12:19;;;;;;;9.38;6.90;;;11.50;99.90;;;;;;7380812;19;20014;-70
2023/10/25 12:14:46;;;;;;;13.07;8.48;;;11.40;99.90;;;;;;7382077;19;20023;-75
2023/10/25 12:17:12;;;;;;;11.43;7.15;;;11.40;99.90;;;;;;7388818;19;20026;-73
2023/10/25 12:19:39;;;;;;;10.98;7.35;;;11.30;99.90;;;;;;7389600;19;20392;-73
2023/10/25 12:22:08;;;;;;;15.18;10.40;;;11.30;99.90;;;;;;7389734;19;20078;-73
2023/10/25 12:24:39;;;;;;;12.43;8.15;;;11.30;99.90;;;;;;7388960;19;20018;-75
2023/10/25 12:27:09;;;;;;;14.10;8.47;;;11.20;99.90;;;;;;7383874;19;20026;-74
2023/10/25 12:29:36;;;;;;;12.32;8.90;;;11.30;99.90;;;;;;7388354;19;20077;-73
2023/10/25 12:32:05;;;;;;;11.80;8.13;;;11.20;99.90;;;;;;7381332;19;20488;-73
2023/10/25 12:34:32;;;;;;;12.18;7.57;;;11.20;99.90;;;;;;7384453;19;20019;-73
2023/10/25 12:36:58;;;;;;;9.93;7.90;;;11.20;99.90;;;;;;7379134;19;20011;-73
2023/10/25 12:39:26;;;;;;;13.68;8.02;;;11.20;99.90;;;;;;7380677;19;20473;-73